createdAt,value
2017-10-28T00:01:46.638Z,74.40
2017-10-28T00:04:14.111Z,74.40
2017-10-28T00:06:41.555Z,74.30
2017-10-28T00:09:08.998Z,74.90
2017-10-28T00:11:36.556Z,74.60
2017-10-28T00:14:04.003Z,74.80
2017-10-28T00:16:31.452Z,74.90
2017-10-28T00:18:58.910Z,74.90
2017-10-28T00:21:26.367Z,74.90
2017-10-28T00:23:53.843Z,74.80
2017-10-28T00:26:21.300Z,74.70
2017-10-28T00:28:48.739Z,74.70
2017-10-28T00:31:21.743Z,74.70
2017-10-28T00:33:54.987Z,74.70
2017-10-28T00:36:22.455Z,74.70
2017-10-28T00:38:49.951Z,74.80
2017-10-28T00:41:17.411Z,75.10
2017-10-28T00:43:44.868Z,75.10
2017-10-28T00:46:12.320Z,75.10
2017-10-28T00:48:39.786Z,75.20
2017-10-28T00:51:07.251Z,75.20
2017-10-28T00:53:34.711Z,75.20
2017-10-28T00:56:02.971Z,75.40
2017-10-28T00:58:30.443Z,75.40
2017-10-28T01:00:57.883Z,75.50
2017-10-28T01:03:25.326Z,75.60
2017-10-28T01:05:52.787Z,75.60
2017-10-28T01:08:20.271Z,75.50
2017-10-28T01:10:47.727Z,75.50
2017-10-28T01:13:15.172Z,75.70
2017-10-28T01:15:42.627Z,75.70
2017-10-28T01:18:10.079Z,75.70
2017-10-28T01:20:37.647Z,75.90
2017-10-28T01:23:05.088Z,76.00
2017-10-28T01:25:32.525Z,76.10
2017-10-28T01:27:59.970Z,76.00
2017-10-28T01:30:27.411Z,76.30
2017-10-28T01:32:55.637Z,76.10
2017-10-28T01:35:23.085Z,76.20
2017-10-28T01:37:50.539Z,76.10
2017-10-28T01:40:17.980Z,76.10
2017-10-28T01:42:45.456Z,76.10
2017-10-28T01:45:12.900Z,76.10
2017-10-28T01:47:40.397Z,76.00
2017-10-28T01:50:07.847Z,76.00
2017-10-28T01:52:35.302Z,76.00
2017-10-28T01:55:02.852Z,76.10
2017-10-28T01:57:30.320Z,76.00
2017-10-28T01:59:57.775Z,76.10
2017-10-28T02:02:25.214Z,76.20
2017-10-28T02:04:52.691Z,76.20
2017-10-28T02:07:20.144Z,76.30
2017-10-28T02:09:47.588Z,76.20
2017-10-28T02:12:15.032Z,76.30
2017-10-28T02:14:42.509Z,76.40
2017-10-28T02:17:09.955Z,76.50
2017-10-28T02:19:37.433Z,76.50
2017-10-28T02:22:04.898Z,77.00
2017-10-28T02:24:32.334Z,77.20
2017-10-28T02:26:59.811Z,77.40
2017-10-28T02:29:27.256Z,77.70
2017-10-28T02:31:54.708Z,77.80
2017-10-28T02:34:22.156Z,77.40
2017-10-28T02:36:49.587Z,77.20
2017-10-28T02:39:17.091Z,77.10
2017-10-28T02:41:44.528Z,77.10
2017-10-28T02:44:11.989Z,77.50
2017-10-28T02:46:39.463Z,77.40
2017-10-28T02:49:06.944Z,77.60
2017-10-28T02:51:34.480Z,77.40
2017-10-28T02:54:01.935Z,77.80
2017-10-28T02:56:29.497Z,78.10
2017-10-28T02:58:56.951Z,78.00
2017-10-28T03:01:24.399Z,78.30
2017-10-28T03:03:51.841Z,78.00
2017-10-28T03:06:19.277Z,77.90
2017-10-28T03:08:46.785Z,78.00
2017-10-28T03:11:14.251Z,77.90
2017-10-28T03:13:41.697Z,78.10
2017-10-28T03:16:09.143Z,77.90
2017-10-28T03:18:36.590Z,77.90
2017-10-28T03:21:04.035Z,78.10
2017-10-28T03:23:31.544Z,78.10
2017-10-28T03:25:59.001Z,78.10
2017-10-28T03:28:26.435Z,78.00
2017-10-28T03:30:53.884Z,78.00
2017-10-28T03:33:21.357Z,78.10
2017-10-28T03:35:48.812Z,78.00
2017-10-28T03:38:16.259Z,78.20
2017-10-28T03:40:43.708Z,78.30
2017-10-28T03:43:11.158Z,78.20
2017-10-28T03:45:38.617Z,78.30
2017-10-28T03:48:06.047Z,78.00
2017-10-28T03:50:33.499Z,78.30
2017-10-28T03:53:01.709Z,78.50
2017-10-28T03:55:29.168Z,78.40
2017-10-28T03:57:56.639Z,78.20
2017-10-28T04:00:24.079Z,78.20
2017-10-28T04:02:51.531Z,78.20
2017-10-28T04:05:18.962Z,78.10
2017-10-28T04:07:46.424Z,78.10
2017-10-28T04:10:13.864Z,78.10
2017-10-28T04:12:42.099Z,78.40
2017-10-28T04:15:09.566Z,78.40
2017-10-28T04:17:36.999Z,78.50
2017-10-28T04:20:04.460Z,78.20
2017-10-28T04:22:31.906Z,78.30
2017-10-28T04:24:59.362Z,78.30
2017-10-28T04:27:26.791Z,78.30
2017-10-28T04:29:55.027Z,78.00
2017-10-28T04:32:22.475Z,78.00
2017-10-28T04:34:49.919Z,78.00
2017-10-28T04:37:17.367Z,78.00
2017-10-28T04:39:44.825Z,78.00
2017-10-28T04:42:12.277Z,78.00
2017-10-28T04:44:39.711Z,78.10
2017-10-28T04:47:07.195Z,78.00
2017-10-28T04:49:34.640Z,78.00
2017-10-28T04:52:02.079Z,78.00
2017-10-28T04:54:30.289Z,78.00
2017-10-28T04:56:57.740Z,78.00
2017-10-28T04:59:25.189Z,77.90
2017-10-28T05:01:52.644Z,77.90
2017-10-28T05:04:20.088Z,77.90
2017-10-28T05:06:47.523Z,77.90
2017-10-28T05:09:15.851Z,77.80
2017-10-28T05:11:43.278Z,77.80
2017-10-28T05:14:10.728Z,77.80
2017-10-28T05:16:38.948Z,77.70
2017-10-28T05:19:06.395Z,78.40
2017-10-28T05:21:33.849Z,77.70
2017-10-28T05:24:01.289Z,77.80
2017-10-28T05:26:28.737Z,77.90
2017-10-28T05:28:56.175Z,77.80
2017-10-28T05:31:24.415Z,77.90
2017-10-28T05:33:51.855Z,77.70
2017-10-28T05:36:19.315Z,77.70
2017-10-28T05:38:46.767Z,77.70
2017-10-28T05:41:14.248Z,77.80
2017-10-28T05:43:41.705Z,77.80
2017-10-28T05:46:09.388Z,77.80
2017-10-28T05:48:36.831Z,77.80
2017-10-28T05:51:04.280Z,77.80
2017-10-28T05:53:31.743Z,77.80
2017-10-28T05:55:59.182Z,77.80
2017-10-28T05:58:26.659Z,77.70
2017-10-28T06:00:54.099Z,77.70
2017-10-28T06:03:21.567Z,77.80
2017-10-28T06:05:49.024Z,77.80
2017-10-28T06:08:16.471Z,77.70
2017-10-28T06:10:43.929Z,77.80
2017-10-28T06:13:11.395Z,77.70
2017-10-28T06:15:38.951Z,77.50
2017-10-28T06:18:06.399Z,77.50
2017-10-28T06:20:33.967Z,77.50
2017-10-28T06:23:01.423Z,77.40
2017-10-28T06:25:28.875Z,77.50
2017-10-28T06:27:56.327Z,77.30
2017-10-28T06:30:23.769Z,77.20
2017-10-28T06:32:51.235Z,77.20
2017-10-28T06:35:18.674Z,77.20
2017-10-28T06:37:46.131Z,77.20
2017-10-28T06:40:13.629Z,77.10
2017-10-28T06:42:41.078Z,77.10
2017-10-28T06:45:08.531Z,77.10
2017-10-28T06:47:35.999Z,77.10
2017-10-28T06:50:03.451Z,77.00
2017-10-28T06:52:30.900Z,76.90
2017-10-28T06:54:58.360Z,76.40
2017-10-28T06:57:25.803Z,76.70
2017-10-28T06:59:53.278Z,76.50
2017-10-28T07:02:20.721Z,76.20
2017-10-28T07:04:48.195Z,76.50
2017-10-28T07:07:15.647Z,76.30
2017-10-28T07:09:43.100Z,76.10
2017-10-28T07:12:10.580Z,76.20
2017-10-28T07:14:38.008Z,76.30
2017-10-28T07:17:05.462Z,76.40
2017-10-28T07:19:32.910Z,76.00
2017-10-28T07:22:00.358Z,75.90
2017-10-28T07:24:27.795Z,76.10
2017-10-28T07:26:56.032Z,76.00
2017-10-28T07:29:23.475Z,76.00
2017-10-28T07:31:50.960Z,75.60
2017-10-28T07:34:18.415Z,75.60
2017-10-28T07:36:45.858Z,75.90
2017-10-28T07:39:13.396Z,75.90
2017-10-28T07:41:40.819Z,76.00
2017-10-28T07:44:09.039Z,75.80
2017-10-28T07:46:36.496Z,75.90
2017-10-28T07:49:03.971Z,75.90
2017-10-28T07:51:31.420Z,75.60
2017-10-28T07:53:58.859Z,76.50
2017-10-28T07:56:26.327Z,75.60
2017-10-28T07:58:53.774Z,75.60
2017-10-28T08:01:21.227Z,75.00
2017-10-28T08:03:54.409Z,75.10
2017-10-28T08:06:21.875Z,74.80
2017-10-28T08:08:49.330Z,74.70
2017-10-28T08:11:16.790Z,75.10
2017-10-28T08:13:44.243Z,74.70
2017-10-28T08:16:11.707Z,75.10
2017-10-28T08:18:39.159Z,75.30
2017-10-28T08:21:06.616Z,74.50
2017-10-28T08:23:34.067Z,74.70
2017-10-28T08:26:01.529Z,74.80
2017-10-28T08:28:28.975Z,74.40
2017-10-28T08:30:56.429Z,74.70
2017-10-28T08:33:23.866Z,75.00
2017-10-28T08:35:52.089Z,74.80
2017-10-28T08:38:19.545Z,74.80
2017-10-28T08:40:47.016Z,75.00
2017-10-28T08:43:14.459Z,74.90
2017-10-28T08:45:41.903Z,74.70
2017-10-28T08:48:09.367Z,74.70
2017-10-28T08:50:36.817Z,74.50
2017-10-28T08:53:04.275Z,75.20
2017-10-28T08:55:31.728Z,74.50
2017-10-28T08:57:59.184Z,74.40
2017-10-28T09:00:26.629Z,74.70
2017-10-28T09:02:54.097Z,74.50
2017-10-28T09:05:21.531Z,74.20
2017-10-28T09:07:48.988Z,74.10
2017-10-28T09:10:16.431Z,73.80
2017-10-28T09:12:44.661Z,74.00
2017-10-28T09:15:12.223Z,74.00
2017-10-28T09:17:39.695Z,74.30
2017-10-28T09:20:07.143Z,74.20
2017-10-28T09:22:38.235Z,74.10
2017-10-28T09:25:06.504Z,74.10
2017-10-28T09:27:34.718Z,74.00
2017-10-28T09:30:02.173Z,74.00
2017-10-28T09:32:29.638Z,73.90
2017-10-28T09:34:57.082Z,74.10
2017-10-28T09:37:24.522Z,73.80
2017-10-28T09:39:51.987Z,74.00
2017-10-28T09:42:19.429Z,74.00
2017-10-28T09:44:46.879Z,73.90
2017-10-28T09:47:15.090Z,74.20
2017-10-28T09:49:42.547Z,74.10
2017-10-28T09:52:10.000Z,74.10
2017-10-28T09:54:37.447Z,73.80
2017-10-28T09:57:04.888Z,73.70
2017-10-28T09:59:32.344Z,73.40
2017-10-28T10:01:59.791Z,73.80
2017-10-28T10:04:28.016Z,73.70
2017-10-28T10:06:55.457Z,73.70
2017-10-28T10:09:22.917Z,74.40
2017-10-28T10:11:50.359Z,73.30
2017-10-28T10:14:17.813Z,73.40
2017-10-28T10:16:45.243Z,73.10
2017-10-28T10:19:13.489Z,73.20
2017-10-28T10:21:40.932Z,73.10
2017-10-28T10:24:08.391Z,73.30
2017-10-28T10:26:35.976Z,72.90
2017-10-28T10:29:03.416Z,72.70
2017-10-28T10:31:30.872Z,72.90
2017-10-28T10:33:58.323Z,72.80
2017-10-28T10:36:25.767Z,73.00
2017-10-28T10:38:53.210Z,73.00
2017-10-28T10:41:20.655Z,73.20
2017-10-28T10:43:48.099Z,72.80
2017-10-28T10:46:16.323Z,73.00
2017-10-28T10:48:43.769Z,72.90
2017-10-28T10:51:11.228Z,72.60
2017-10-28T10:53:38.672Z,72.80
2017-10-28T10:56:06.125Z,72.00
2017-10-28T10:58:33.575Z,72.60
2017-10-28T11:01:01.024Z,72.20
2017-10-28T11:03:28.463Z,72.10
2017-10-28T11:05:55.908Z,71.70
2017-10-28T11:08:23.348Z,71.80
2017-10-28T11:10:50.816Z,72.00
2017-10-28T11:13:18.260Z,71.70
2017-10-28T11:15:46.462Z,71.80
2017-10-28T11:18:13.943Z,71.90
2017-10-28T11:20:41.383Z,71.80
2017-10-28T11:23:09.607Z,71.40
2017-10-28T11:25:37.060Z,71.30
2017-10-28T11:28:04.508Z,71.50
2017-10-28T11:30:31.951Z,71.80
2017-10-28T11:32:59.464Z,71.90
2017-10-28T11:35:26.906Z,71.50
2017-10-28T11:37:54.367Z,70.70
2017-10-28T11:40:21.842Z,71.20
2017-10-28T11:42:49.283Z,71.00
2017-10-28T11:45:16.718Z,70.90
2017-10-28T11:47:44.176Z,71.40
2017-10-28T11:50:11.632Z,71.30
2017-10-28T11:52:39.099Z,71.30
2017-10-28T11:55:06.547Z,71.80
2017-10-28T11:57:34.008Z,71.90
2017-10-28T12:00:01.464Z,71.80
2017-10-28T12:02:28.904Z,71.80
2017-10-28T12:04:56.355Z,71.50
2017-10-28T12:07:23.798Z,70.40
2017-10-28T12:09:51.245Z,70.70
2017-10-28T12:12:19.463Z,71.00
2017-10-28T12:14:46.944Z,71.00
2017-10-28T12:17:14.400Z,70.50
2017-10-28T12:19:41.843Z,70.60
2017-10-28T12:22:09.291Z,70.40
2017-10-28T12:24:36.744Z,70.00
2017-10-28T12:27:04.174Z,70.40
2017-10-28T12:29:31.624Z,70.50
2017-10-28T12:31:59.834Z,70.20
2017-10-28T12:34:27.271Z,70.30
2017-10-28T12:36:54.715Z,69.80
2017-10-28T12:39:22.937Z,70.10
2017-10-28T12:41:50.385Z,70.10
2017-10-28T12:44:17.854Z,70.10
2017-10-28T12:46:45.307Z,69.90
2017-10-28T12:49:12.765Z,69.40
2017-10-28T12:51:40.223Z,69.40
2017-10-28T12:54:07.667Z,70.00
2017-10-28T12:56:35.118Z,69.30
2017-10-28T12:59:02.564Z,69.30
2017-10-28T13:01:30.024Z,69.70
2017-10-28T13:03:57.463Z,69.70
2017-10-28T13:06:24.911Z,69.40
2017-10-28T13:08:53.124Z,69.10
2017-10-28T13:11:20.563Z,69.10
2017-10-28T13:13:48.003Z,69.20
2017-10-28T13:16:16.227Z,68.70
2017-10-28T13:18:43.666Z,68.80
2017-10-28T13:21:11.113Z,68.80
2017-10-28T13:23:38.555Z,68.80
2017-10-28T13:26:06.782Z,68.80
2017-10-28T13:28:34.235Z,68.80
2017-10-28T13:31:01.675Z,68.90
2017-10-28T13:33:29.127Z,68.90
2017-10-28T13:35:57.344Z,69.00
2017-10-28T13:38:24.788Z,69.00
2017-10-28T13:40:52.256Z,69.10
2017-10-28T13:43:19.700Z,68.90
2017-10-28T13:45:47.144Z,68.20
2017-10-28T13:48:14.595Z,68.20
2017-10-28T13:50:42.035Z,68.70
2017-10-28T13:53:09.483Z,68.40
2017-10-28T13:55:36.916Z,68.80
2017-10-28T13:58:05.138Z,68.10
2017-10-28T14:00:32.584Z,68.10
2017-10-28T14:03:00.030Z,69.10
2017-10-28T14:05:27.468Z,68.80
2017-10-28T14:07:55.685Z,68.90
2017-10-28T14:10:23.119Z,68.90
2017-10-28T14:12:50.569Z,68.50
2017-10-28T14:15:18.011Z,68.20
2017-10-28T14:17:46.249Z,68.30
2017-10-28T14:20:13.696Z,68.30
2017-10-28T14:22:41.163Z,68.90
2017-10-28T14:25:08.608Z,68.60
2017-10-28T14:27:36.067Z,68.50
2017-10-28T14:30:03.510Z,68.40
2017-10-28T14:32:31.095Z,68.00
2017-10-28T14:34:58.556Z,68.30
2017-10-28T14:37:26.012Z,68.90
2017-10-28T14:39:53.472Z,68.40
2017-10-28T14:42:20.914Z,68.20
2017-10-28T14:44:48.367Z,68.70
2017-10-28T14:47:15.821Z,68.60
2017-10-28T14:49:43.274Z,68.90
2017-10-28T14:52:10.735Z,68.40
2017-10-28T14:54:38.185Z,68.90
2017-10-28T14:57:05.616Z,68.50
2017-10-28T14:59:33.840Z,69.00
2017-10-28T15:02:01.282Z,68.90
2017-10-28T15:04:28.736Z,68.70
2017-10-28T15:06:56.191Z,69.00
2017-10-28T15:09:23.635Z,69.30
2017-10-28T15:11:51.071Z,69.30
2017-10-28T15:14:19.287Z,69.30
2017-10-28T15:16:46.732Z,69.40
2017-10-28T15:19:14.172Z,69.10
2017-10-28T15:21:41.615Z,69.10
2017-10-28T15:24:09.833Z,69.30
2017-10-28T15:26:37.283Z,69.40
2017-10-28T15:29:04.737Z,69.50
2017-10-28T15:31:32.170Z,69.80
2017-10-28T15:33:59.617Z,70.00
2017-10-28T15:36:27.860Z,70.70
2017-10-28T15:38:55.306Z,70.70
2017-10-28T15:41:22.767Z,70.70
2017-10-28T15:43:50.209Z,71.00
2017-10-28T15:46:17.659Z,71.00
2017-10-28T15:48:45.100Z,71.00
2017-10-28T15:51:12.546Z,71.00
2017-10-28T15:53:39.987Z,71.10
2017-10-28T15:56:08.199Z,71.10
2017-10-28T15:58:35.643Z,71.00
2017-10-28T16:01:03.094Z,70.80
2017-10-28T16:03:30.539Z,70.70
2017-10-28T16:05:57.988Z,70.90
2017-10-28T16:08:26.186Z,70.70
2017-10-28T16:10:53.667Z,70.70
2017-10-28T16:13:21.115Z,70.40
2017-10-28T16:15:48.568Z,70.30
2017-10-28T16:18:16.031Z,70.50
2017-10-28T16:20:43.461Z,70.70
2017-10-28T16:23:10.908Z,70.60
2017-10-28T16:25:39.136Z,70.30
2017-10-28T16:28:06.603Z,70.20
2017-10-28T16:30:34.040Z,70.40
2017-10-28T16:33:01.502Z,70.30
2017-10-28T16:35:28.942Z,69.80
2017-10-28T16:37:56.388Z,69.90
2017-10-28T16:40:23.827Z,69.80
2017-10-28T16:42:51.286Z,69.70
2017-10-28T16:45:19.498Z,69.70
2017-10-28T16:47:46.960Z,69.70
2017-10-28T16:50:14.408Z,69.70
2017-10-28T16:52:41.871Z,69.30
2017-10-28T16:55:09.340Z,69.70
2017-10-28T16:57:36.799Z,70.20
2017-10-28T17:00:04.244Z,70.40
2017-10-28T17:02:31.710Z,70.80
2017-10-28T17:04:59.159Z,71.60
2017-10-28T17:07:26.607Z,71.90
2017-10-28T17:09:54.063Z,72.50
2017-10-28T17:12:21.504Z,72.70
2017-10-28T17:14:48.947Z,72.80
2017-10-28T17:17:16.387Z,72.50
2017-10-28T17:19:44.620Z,75.10
2017-10-28T17:22:12.066Z,75.00
2017-10-28T17:24:39.524Z,74.90
2017-10-28T17:27:07.003Z,74.60
2017-10-28T17:29:34.460Z,75.70
2017-10-28T17:32:01.908Z,75.50
2017-10-28T17:34:29.376Z,75.40
2017-10-28T17:36:56.820Z,75.20
2017-10-28T17:39:24.275Z,75.40
2017-10-28T17:41:51.724Z,75.90
2017-10-28T17:44:19.180Z,75.30
2017-10-28T17:46:46.631Z,75.40
2017-10-28T17:49:14.091Z,75.70
2017-10-28T17:51:41.526Z,76.00
2017-10-28T17:54:09.013Z,75.90
2017-10-28T17:56:36.464Z,77.10
2017-10-28T17:59:03.895Z,77.00
2017-10-28T18:01:31.352Z,76.40
2017-10-28T18:03:58.792Z,76.40
2017-10-28T18:06:27.020Z,76.70
2017-10-28T18:08:54.467Z,76.70
2017-10-28T18:11:21.926Z,76.90
2017-10-28T18:13:49.378Z,76.20
2017-10-28T18:16:16.819Z,76.60
2017-10-28T18:18:44.254Z,77.20
2017-10-28T18:21:12.478Z,77.70
2017-10-28T18:23:39.925Z,77.70
2017-10-28T18:26:07.383Z,77.20
2017-10-28T18:28:34.818Z,76.70
2017-10-28T18:31:02.267Z,78.10
2017-10-28T18:33:30.488Z,77.50
2017-10-28T18:35:57.935Z,77.50
2017-10-28T18:38:25.405Z,77.30
2017-10-28T18:40:52.860Z,77.50
2017-10-28T18:43:20.291Z,78.80
2017-10-28T18:45:47.737Z,79.10
2017-10-28T18:48:15.174Z,79.50
2017-10-28T18:50:43.394Z,79.40
2017-10-28T18:53:10.843Z,79.30
2017-10-28T18:55:38.276Z,79.20
2017-10-28T18:58:05.732Z,78.50
2017-10-28T19:00:33.242Z,80.50
2017-10-28T19:03:00.698Z,80.30
2017-10-28T19:05:28.143Z,80.60
2017-10-28T19:07:55.595Z,80.70
2017-10-28T19:10:23.035Z,80.40
2017-10-28T19:12:50.531Z,80.70
2017-10-28T19:15:17.971Z,81.90
2017-10-28T19:17:45.418Z,80.40
2017-10-28T19:20:12.896Z,80.60
2017-10-28T19:22:40.362Z,81.30
2017-10-28T19:25:07.789Z,81.00
2017-10-28T19:27:35.251Z,81.60
2017-10-28T19:30:02.729Z,81.20
2017-10-28T19:32:30.288Z,81.90
2017-10-28T19:34:57.735Z,81.00
2017-10-28T19:37:25.219Z,81.00
2017-10-28T19:39:52.670Z,80.90
2017-10-28T19:42:20.112Z,81.00
2017-10-28T19:44:47.568Z,81.20
2017-10-28T19:47:15.015Z,80.40
2017-10-28T19:49:42.475Z,82.10
2017-10-28T19:52:09.945Z,82.20
2017-10-28T19:54:37.401Z,82.00
2017-10-28T19:57:04.843Z,81.80
2017-10-28T19:59:32.294Z,82.40
2017-10-28T20:01:59.751Z,82.30
2017-10-28T20:04:27.200Z,82.60
2017-10-28T20:06:54.640Z,81.90
2017-10-28T20:09:22.084Z,82.00
2017-10-28T20:11:50.295Z,82.60
2017-10-28T20:14:17.772Z,83.30
2017-10-28T20:16:45.223Z,83.70
2017-10-28T20:19:12.691Z,82.40
2017-10-28T20:21:40.145Z,83.40
2017-10-28T20:24:07.620Z,83.40
2017-10-28T20:26:35.064Z,83.70
2017-10-28T20:29:02.505Z,83.90
2017-10-28T20:31:29.967Z,83.50
2017-10-28T20:33:57.408Z,83.50
2017-10-28T20:36:24.865Z,83.70
2017-10-28T20:38:52.323Z,83.60
2017-10-28T20:41:19.783Z,84.10
2017-10-28T20:43:47.220Z,83.90
2017-10-28T20:46:14.687Z,83.30
2017-10-28T20:48:42.111Z,84.40
2017-10-28T20:51:10.338Z,84.90
2017-10-28T20:53:37.809Z,85.50
2017-10-28T20:56:05.265Z,83.70
2017-10-28T20:58:32.708Z,84.30
2017-10-28T21:01:00.180Z,83.40
2017-10-28T21:03:27.643Z,84.60
2017-10-28T21:05:55.087Z,84.30
2017-10-28T21:08:22.543Z,84.10
2017-10-28T21:10:49.993Z,84.70
2017-10-28T21:13:17.448Z,84.10
2017-10-28T21:15:44.903Z,84.10
2017-10-28T21:18:12.376Z,84.00
2017-10-28T21:20:39.823Z,84.00
2017-10-28T21:23:07.280Z,84.10
2017-10-28T21:25:34.734Z,84.00
2017-10-28T21:28:02.203Z,83.70
2017-10-28T21:30:29.764Z,83.70
2017-10-28T21:32:57.223Z,83.70
2017-10-28T21:35:24.782Z,83.70
2017-10-28T21:37:52.218Z,83.70
2017-10-28T21:40:19.701Z,83.20
2017-10-28T21:42:47.145Z,83.10
2017-10-28T21:45:14.588Z,83.80
2017-10-28T21:47:42.044Z,83.50
2017-10-28T21:50:09.487Z,83.50
2017-10-28T21:52:36.943Z,84.00
2017-10-28T21:55:04.374Z,83.80
2017-10-28T21:57:32.591Z,83.90
2017-10-28T22:00:00.044Z,84.60
2017-10-28T22:02:27.526Z,83.80
2017-10-28T22:04:54.978Z,83.70
2017-10-28T22:07:22.431Z,83.50
2017-10-28T22:09:49.888Z,83.50
2017-10-28T22:12:17.355Z,83.60
2017-10-28T22:14:44.811Z,83.70
2017-10-28T22:17:12.255Z,84.30
2017-10-28T22:19:39.714Z,84.30
2017-10-28T22:22:07.156Z,84.40
2017-10-28T22:24:34.590Z,84.40
2017-10-28T22:27:02.815Z,85.10
2017-10-28T22:29:30.267Z,85.10
2017-10-28T22:31:57.736Z,85.50
2017-10-28T22:34:25.167Z,85.40
2017-10-28T22:36:52.643Z,85.30
2017-10-28T22:39:20.092Z,86.60
2017-10-28T22:41:47.555Z,86.10
2017-10-28T22:44:15.011Z,86.40
2017-10-28T22:46:42.562Z,86.20
2017-10-28T22:49:10.020Z,86.00
2017-10-28T22:51:37.460Z,86.20
2017-10-28T22:54:04.918Z,86.60
2017-10-28T22:56:32.351Z,87.10
2017-10-28T22:58:59.800Z,86.70
2017-10-28T23:01:28.035Z,86.20
2017-10-28T23:03:55.599Z,86.20
2017-10-28T23:06:23.051Z,86.20
2017-10-28T23:08:50.500Z,87.10
2017-10-28T23:11:17.964Z,86.80
2017-10-28T23:13:45.525Z,87.20
2017-10-28T23:16:12.979Z,87.10
2017-10-28T23:18:40.419Z,86.90
2017-10-28T23:21:07.896Z,87.10
2017-10-28T23:23:35.352Z,86.70
2017-10-28T23:26:02.799Z,86.60
2017-10-28T23:28:30.263Z,86.80
2017-10-28T23:30:57.712Z,87.20
2017-10-28T23:33:25.183Z,87.70
2017-10-28T23:35:52.624Z,87.40
2017-10-28T23:38:20.096Z,86.80
2017-10-28T23:40:47.544Z,88.30
2017-10-28T23:43:15.008Z,88.00
2017-10-28T23:45:42.567Z,88.70
2017-10-28T23:48:10.027Z,88.70
2017-10-28T23:50:37.484Z,87.90
2017-10-28T23:53:04.928Z,88.60
2017-10-28T23:55:32.383Z,88.70
2017-10-28T23:57:59.836Z,88.30
